Home > Products > Valid Products > TAF

000
FTUS41 KLWX 300534
TAFDCA
TAF
KDCA 300534Z 3006/3106 20007KT P6SM SCT090
     FM301600 VRB03KT P6SM SCT090
     FM302100 20007KT P6SM BKN150=



000
FTUS41 KLWX 300534
TAFBWI
TAF
KBWI 300534Z 3006/3112 20007KT P6SM SCT150
     FM301500 VRB03KT P6SM SCT140
     FM302000 19007KT P6SM BKN200
     FM311000 25004KT P6SM BKN080=



000
FTUS41 KLWX 300534
TAFIAD
TAF
KIAD 300534Z 3006/3112 19008KT P6SM SCT080
     FM301100 21004KT P6SM SCT070
     FM302000 21006KT P6SM BKN200=



000
FTUS41 KLWX 300534
TAFMTN
TAF
KMTN 300534Z 3006/3106 NIL=



000
FTUS41 KLWX 300534
TAFMRB
TAF
KMRB 300534Z 3006/3106 19005KT 6SM BR SCT080
     FM300800 22005KT 5SM BR SCT080
     FM301200 00000KT P6SM FEW200
     FM302200 20005KT P6SM BKN050=



000
FTUS41 KLWX 300534
TAFCHO
TAF
KCHO 300534Z 3006/3106 20004KT P6SM BKN110
     FM301000 00000KT 6SM BR BKN080
     FM301200 00000KT P6SM SCT080
     FM302100 19006KT P6SM BKN140=



000
FTUS41 KLWX 292339
TAFIAD
TAF
KIAD 292339Z 3000/3106 19005KT P6SM BKN090
     FM301200 23005KT P6SM SCT120
     FM301900 22006KT P6SM BKN060=



000
FTUS41 KLWX 292339
TAFDCA
TAF
KDCA 292339Z 3000/3024 17007KT P6SM BKN100
     FM301600 18008KT P6SM SCT050
     FM302000 20009KT P6SM BKN070=



000
FTUS41 KLWX 292339
TAFMTN
TAF
KMTN 292339Z 3000/3024 17008KT P6SM SCT090
     FM301300 VRB03KT P6SM SCT060
     FM301900 15007KT P6SM BKN070
      AMD NOT SKED 3002/3012=



000
FTUS41 KLWX 292339
TAFMRB
TAF
KMRB 292339Z 3000/3024 17005KT P6SM SCT090
     FM301000 00000KT 5SM BR SCT080
     FM301200 VRB04KT P6SM BKN060=



000
FTUS41 KLWX 292339
TAFBWI
TAF
KBWI 292339Z 3000/3106 17005KT P6SM SCT090
     FM301200 22005KT P6SM SCT090
     FM302000 17006KT P6SM BKN070=



000
FTUS41 KLWX 292339
TAFCHO
TAF
KCHO 292339Z 3000/3024 18004KT P6SM BKN250
     FM300900 VRB03KT 3SM BR FEW090
     FM301200 20005KT P6SM SCT070
     FM301800 19007KT P6SM BKN060=



000
FTUS41 KLWX 292058 AAA
TAFBWI
TAF AMD
KBWI 292058Z 2921/3024 15005KT P6SM FEW060 SCT250
     FM300200 18003KT P6SM BKN250
     FM301500 21006KT P6SM SCT050
     FM302000 19006KT P6SM BKN060=



000
FTUS41 KLWX 292058 AAA
TAFIAD
TAF AMD
KIAD 292058Z 2921/3024 19006KT P6SM SCT050 BKN250
     FM301200 22004KT P6SM SCT120
     FM301900 21006KT P6SM BKN050=



000
FTUS41 KLWX 292058 AAA
TAFDCA
TAF AMD
KDCA 292058Z 2921/3018 17011KT P6SM SCT060 BKN250
     FM301200 VRB03KT P6SM SCT110=



000
FTUS41 KLWX 291728
TAFIAD
TAF
KIAD 291728Z 2918/3024 VRB06KT P6SM FEW050 SCT250
     FM301200 00000KT P6SM SCT120
     FM301900 22004KT P6SM BKN050=



000
FTUS41 KLWX 291728
TAFMRB
TAF
KMRB 291728Z 2918/3018 33005KT P6SM FEW050
     FM300000 17005KT P6SM BKN045
     FM300100 18005KT P6SM SCT050
     FM300300 20004KT P6SM SCT250
     FM301000 00000KT 6SM BR FEW250
     FM301300 00000KT P6SM SCT050=



000
FTUS41 KLWX 291728
TAFMTN
TAF
KMTN 291728Z 2918/3018 15010KT P6SM FEW120
     FM301300 VRB03KT P6SM SCT250=



000
FTUS41 KLWX 291728
TAFDCA
TAF
KDCA 291728Z 2918/3018 17011KT P6SM BKN250
     FM301200 VRB03KT P6SM SCT110=



000
FTUS41 KLWX 291728
TAFBWI
TAF
KBWI 291728Z 2918/3024 18005KT P6SM FEW060 SCT250
     FM301300 VRB03KT P6SM SCT250
     FM301500 00000KT P6SM SCT050
     FM302000 19006KT P6SM BKN060=



000
FTUS41 KLWX 291728
TAFCHO
TAF
KCHO 291728Z 2918/3018 18006KT P6SM SCT080
     FM300000 18004KT P6SM VCSH SCT050 BKN090
     FM300100 VRB03KT P6SM SCT090
     FM300900 VRB03KT 5SM BR SCT070
     FM301200 00000KT P6SM SCT070=



000
FTUS41 KLWX 291728
TAFBWI
TAF
KBWI 291728Z 2918/3024 18005KT P6SM FEW060 SCT250
     FM301300 VRB03KT P6SM SCT250
     FM301500 00000KT P6SM SCT050
     FM302000 19006KT P6SM BKN060=



000
FTUS41 KLWX 291728
TAFDCA
TAF
KDCA 291728Z 2918/3018 17011KT P6SM BKN250
     FM301200 VRB03KT P6SM SCT110=



000
FTUS41 KLWX 291728
TAFMRB
TAF
KMRB 291728Z 2918/3018 33005KT P6SM FEW050
     FM300000 17005KT P6SM BKN045
     FM300100 18005KT P6SM SCT050
     FM300300 20004KT P6SM SCT250
     FM301000 00000KT 6SM BR FEW250
     FM301300 00000KT P6SM SCT050=



000
FTUS41 KLWX 291728
TAFCHO
TAF
KCHO 291728Z 2918/3018 18006KT P6SM SCT080
     FM300000 18004KT P6SM VCSH SCT050 BKN090
     FM300100 VRB03KT P6SM SCT090
     FM300900 VRB03KT 5SM BR SCT070
     FM301200 00000KT P6SM SCT070=



000
FTUS41 KLWX 291728
TAFMTN
TAF
KMTN 291728Z 2918/3018 15010KT P6SM FEW120
     FM301300 VRB03KT P6SM SCT250=



000
FTUS41 KLWX 291728
TAFIAD
TAF
KIAD 291728Z 2918/3024 VRB06KT P6SM FEW050 SCT250
     FM301200 00000KT P6SM SCT120
     FM301900 22004KT P6SM BKN050=



000
FTUS41 KLWX 291531 AAA
TAFDCA
TAF AMD
KDCA 291531Z 2916/3012 20007KT P6SM FEW060=



000
FTUS41 KLWX 291531 AAA
TAFIAD
TAF AMD
KIAD 291531Z 2916/3018 20007KT P6SM SCT250
     FM301000 VRB03KT P6SM SCT120=



000
FTUS41 KLWX 291531 AAA
TAFDCA
TAF AMD
KDCA 291531Z 2916/3012 20007KT P6SM FEW060=



000
FTUS41 KLWX 291531 AAA
TAFIAD
TAF AMD
KIAD 291531Z 2916/3018 20007KT P6SM SCT250
     FM301000 VRB03KT P6SM SCT120=



000
FTUS41 KLWX 291531 AAA
TAFBWI
TAF AMD
KBWI 291531Z 2916/3018 20007KT P6SM FEW060
     FM301300 VRB03KT P6SM SCT250
     FM301500 00000KT P6SM SCT050=



000
FTUS41 KLWX 291531 AAA
TAFBWI
TAF AMD
KBWI 291531Z 2916/3018 20007KT P6SM FEW060
     FM301300 VRB03KT P6SM SCT250
     FM301500 00000KT P6SM SCT050=



000
FTUS41 KLWX 291137
TAFCHO
TAF
KCHO 291137Z 2912/3012 00000KT P6SM SCT060
     FM291500 20006KT P6SM FEW250
     FM300000 VRB03KT P6SM SCT090
     FM300900 VRB03KT 3SM BR SCT070=



000
FTUS41 KLWX 291137
TAFIAD
TAF
KIAD 291137Z 2912/3018 19004KT P6SM SCT060
     FM301200 00000KT P6SM SCT120=



000
FTUS41 KLWX 291137
TAFMRB
TAF
KMRB 291137Z 2912/3012 00000KT 5SM BR SCT060
     FM291300 VRB03KT P6SM SCT250
     FM292200 18005KT P6SM SCT050
     FM300300 20004KT P6SM SCT250
     FM301000 00000KT 6SM BR FEW250=



000
FTUS41 KLWX 291137
TAFBWI
TAF
KBWI 291137Z 2912/3018 22004KT P6SM SCT050
     FM291800 19007KT P6SM SCT250
     FM301300 VRB03KT P6SM SCT250
     FM301500 00000KT P6SM SCT050=



000
FTUS41 KLWX 291137
TAFMTN
TAF
KMTN 291137Z 2912/3012 VRB03KT P6SM SCT050
     FM291500 20007KT P6SM FEW050
     FM291700 19008KT P6SM SCT250=



000
FTUS41 KLWX 291137
TAFDCA
TAF
KDCA 291137Z 2912/3012 VRB03KT P6SM SCT050
     FM291500 20007KT P6SM FEW060=



000
FTUS41 KLWX 290857 AAA
TAFMRB
TAF AMD
KMRB 290857Z 2909/3006 VRB03KT 5SM BR SCT050
     FM291100 00000KT 3SM BR SCT050
     FM291200 00000KT P6SM SCT060
     FM300000 17005KT P6SM BKN045
     FM300100 18005KT P6SM SCT050
     FM300300 20004KT P6SM SCT250=



000
FTUS41 KLWX 290857 AAA
TAFIAD
TAF AMD
KIAD 290857Z 2909/3012 VRB03KT P6SM SCT050
     FM291500 20007KT P6SM FEW060
     FM301000 VRB03KT P6SM SCT120=



000
FTUS41 KLWX 290857 AAA
TAFCHO
TAF AMD
KCHO 290857Z 2909/3006 VRB03KT P6SM SCT060
     FM300000 18004KT P6SM BKN090
     FM300100 VRB03KT P6SM SCT090=



000
FTUS41 KLWX 290857 AAA
TAFBWI
TAF AMD
KBWI 290857Z 2909/3012 VRB03KT P6SM SCT050
     FM291500 20007KT P6SM FEW060=



000
FTUS41 KLWX 290857 AAA
TAFDCA
TAF AMD
KDCA 290857Z 2909/3006 VRB03KT P6SM SCT050
     FM291500 20007KT P6SM FEW060=



000
FTUS41 KLWX 290857 AAA
TAFBWI
TAF AMD
KBWI 290857Z 2909/3012 VRB03KT P6SM SCT050
     FM291500 20007KT P6SM FEW060=



000
FTUS41 KLWX 290857 AAA
TAFDCA
TAF AMD
KDCA 290857Z 2909/3006 VRB03KT P6SM SCT050
     FM291500 20007KT P6SM FEW060=



000
FTUS41 KLWX 290857 AAA
TAFMRB
TAF AMD
KMRB 290857Z 2909/3006 VRB03KT 5SM BR SCT050
     FM291100 00000KT 3SM BR SCT050
     FM291200 00000KT P6SM SCT060
     FM300000 17005KT P6SM BKN045
     FM300100 18005KT P6SM SCT050
     FM300300 20004KT P6SM SCT250=



000
FTUS41 KLWX 290857 AAA
TAFCHO
TAF AMD
KCHO 290857Z 2909/3006 VRB03KT P6SM SCT060
     FM300000 18004KT P6SM BKN090
     FM300100 VRB03KT P6SM SCT090=



000
FTUS41 KLWX 290857 AAA
TAFIAD
TAF AMD
KIAD 290857Z 2909/3012 VRB03KT P6SM SCT050
     FM291500 20007KT P6SM FEW060
     FM301000 VRB03KT P6SM SCT120=



000
FTUS41 KLWX 290524
TAFMRB
TAF
KMRB 290524Z 2906/3006 00000KT P6SM SCT045
     FM291300 VRB03KT P6SM SCT250
     FM292200 18005KT P6SM SCT050
     FM300300 20004KT P6SM SCT250=



000
FTUS41 KLWX 290524
TAFIAD
TAF
KIAD 290524Z 2906/3012 17004KT P6SM BKN050
     FM290800 VRB03KT P6SM SCT050
     FM291500 20007KT P6SM FEW060
     FM301000 VRB03KT P6SM SCT120=



000
FTUS41 KLWX 290524
TAFMTN
TAF
KMTN 290524Z 2906/3006 NIL=



000
FTUS41 KLWX 290524
TAFBWI
TAF
KBWI 290524Z 2906/3012 VRB03KT P6SM SCT060
     FM291500 20007KT P6SM FEW060=



000
FTUS41 KLWX 290524
TAFDCA
TAF
KDCA 290524Z 2906/3006 VRB03KT P6SM BKN060
     FM290700 VRB03KT P6SM SCT050
     FM291500 20007KT P6SM FEW060=



000
FTUS41 KLWX 290524
TAFCHO
TAF
KCHO 290524Z 2906/3006 00000KT P6SM BKN070
     FM290900 VRB03KT P6SM SCT060
     FM291000 00000KT 4SM BR SCT060
     FM291200 00000KT P6SM SCT060
     FM291500 20006KT P6SM FEW250
     FM300000 18004KT P6SM BKN090
     FM300100 VRB03KT P6SM SCT090=



000
FTUS41 KLWX 290524
TAFMTN
TAF
KMTN 290524Z 2906/3006 NIL=



000
FTUS41 KLWX 290524
TAFIAD
TAF
KIAD 290524Z 2906/3012 17004KT P6SM BKN050
     FM290800 VRB03KT P6SM SCT050
     FM291500 20007KT P6SM FEW060
     FM301000 VRB03KT P6SM SCT120=



000
FTUS41 KLWX 290524
TAFMRB
TAF
KMRB 290524Z 2906/3006 00000KT P6SM SCT045
     FM291300 VRB03KT P6SM SCT250
     FM292200 18005KT P6SM SCT050
     FM300300 20004KT P6SM SCT250=



000
FTUS41 KLWX 290524
TAFDCA
TAF
KDCA 290524Z 2906/3006 VRB03KT P6SM BKN060
     FM290700 VRB03KT P6SM SCT050
     FM291500 20007KT P6SM FEW060=



000
FTUS41 KLWX 290524
TAFBWI
TAF
KBWI 290524Z 2906/3012 VRB03KT P6SM SCT060
     FM291500 20007KT P6SM FEW060=



000
FTUS41 KLWX 290524
TAFCHO
TAF
KCHO 290524Z 2906/3006 00000KT P6SM BKN070
     FM290900 VRB03KT P6SM SCT060
     FM291000 00000KT 4SM BR SCT060
     FM291200 00000KT P6SM SCT060
     FM291500 20006KT P6SM FEW250
     FM300000 18004KT P6SM BKN090
     FM300100 VRB03KT P6SM SCT090=



000
FTUS41 KLWX 282340
TAFBWI
TAF
KBWI 282340Z 2900/3006 VRB04KT P6SM SKC
     FM291500 21009KT P6SM FEW050
     FM291800 19007KT P6SM FEW050
     FM300000 16011KT P6SM SCT250
     FM300300 20010KT P6SM SCT250=



000
FTUS41 KLWX 282340
TAFIAD
TAF
KIAD 282340Z 2900/3006 VRB03KT P6SM SKC
     FM291600 21006KT P6SM FEW250
     FM292300 VRB03KT P6SM BKN080
     FM300100 18004KT P6SM SCT070=



000
FTUS41 KLWX 282340
TAFCHO
TAF
KCHO 282340Z 2900/2924 VRB03KT P6SM SKC
     FM291200 22004KT P6SM FEW080
     FM292300 18005KT P6SM BKN080=



000
FTUS41 KLWX 282340
TAFMRB
TAF
KMRB 282340Z 2900/2924 VRB03KT P6SM SKC
     FM290700 00000KT 3SM BR SCT050
     FM291300 20004KT P6SM FEW250
     FM292300 17005KT P6SM BKN070=



000
FTUS41 KLWX 282340
TAFDCA
TAF
KDCA 282340Z 2900/2924 13011KT P6SM SKC
     FM290600 19004KT P6SM SKC
     FM291500 21008KT P6SM FEW060=



000
FTUS41 KLWX 282340
TAFMTN
TAF
KMTN 282340Z 2900/2924 VRB03KT P6SM SKC
     FM291400 21008KT P6SM FEW050
     FM291900 19009KT P6SM FEW250
      AMD NOT SKED 2902/2912=



000
FTUS41 KLWX 282101 AAA
TAFDCA
TAF AMD
KDCA 282101Z 2821/2918 16005KT P6SM FEW070
     FM282300 17005KT P6SM FEW250
     FM290800 00000KT P6SM FEW060
     FM291500 20006KT P6SM FEW060=



000
FTUS41 KLWX 282101 AAA
TAFDCA
TAF AMD
KDCA 282101Z 2821/2918 16005KT P6SM FEW070
     FM282300 17005KT P6SM FEW250
     FM290800 00000KT P6SM FEW060
     FM291500 20006KT P6SM FEW060=



000
FTUS41 KLWX 282101 AAA
TAFBWI
TAF AMD
KBWI 282101Z 2821/2924 14005KT P6SM SCT060
     FM290100 16004KT P6SM FEW250
     FM290400 00000KT P6SM FEW250
     FM291500 20006KT P6SM FEW060=



000
FTUS41 KLWX 282100 AAA
TAFIAD
TAF AMD
KIAD 282100Z 2821/2924 26005KT P6SM SCT060
     FM282300 VRB03KT P6SM FEW250
     FM290900 00000KT P6SM SCT050
     FM291300 20004KT P6SM SCT250=



000
FTUS41 KLWX 282100 AAA
TAFIAD
TAF AMD
KIAD 282100Z 2821/2924 26005KT P6SM SCT060
     FM282300 VRB03KT P6SM FEW250
     FM290900 00000KT P6SM SCT050
     FM291300 20004KT P6SM SCT250=



000
FTUS41 KLWX 281729
TAFDCA
TAF
KDCA 281729Z 2818/2918 VRB03KT P6SM SCT050
     FM282300 17005KT P6SM FEW250
     FM290800 00000KT P6SM FEW060
     FM291500 20006KT P6SM FEW060=



000
FTUS41 KLWX 281729
TAFCHO
TAF
KCHO 281729Z 2818/2918 18004KT P6SM SCT050
     FM290200 10004KT P6SM SCT050
     FM290800 00000KT 3SM BR SCT070
     FM291200 20003KT P6SM SCT090=



000
FTUS41 KLWX 281729
TAFBWI
TAF
KBWI 281729Z 2818/2924 VRB03KT P6SM SCT050
     FM290100 16004KT P6SM FEW250
     FM290400 00000KT P6SM FEW250
     FM291500 20006KT P6SM FEW060=



000
FTUS41 KLWX 281729
TAFMRB
TAF
KMRB 281729Z 2818/2918 VRB03KT P6SM SCT050
     FM282300 00000KT P6SM FEW250
     FM290700 00000KT P6SM SCT050
     FM291200 20003KT P6SM SCT250=



000
FTUS41 KLWX 281729
TAFIAD
TAF
KIAD 281729Z 2818/2924 29004KT P6SM SCT050
     FM282300 VRB03KT P6SM FEW250
     FM290900 00000KT P6SM SCT050
     FM291300 20004KT P6SM SCT250=



000
FTUS41 KLWX 281729
TAFMTN
TAF
KMTN 281729Z 2818/2918 17007KT P6SM SCT060
     FM290200 VRB03KT P6SM FEW250
     FM291100 00000KT P6SM FEW050
     FM291600 19006KT P6SM FEW060=



000
FTUS41 KLWX 281729
TAFMRB
TAF
KMRB 281729Z 2818/2918 VRB03KT P6SM SCT050
     FM282300 00000KT P6SM FEW250
     FM290700 00000KT P6SM SCT050
     FM291200 20003KT P6SM SCT250=



000
FTUS41 KLWX 281729
TAFCHO
TAF
KCHO 281729Z 2818/2918 18004KT P6SM SCT050
     FM290200 10004KT P6SM SCT050
     FM290800 00000KT 3SM BR SCT070
     FM291200 20003KT P6SM SCT090=



000
FTUS41 KLWX 281729
TAFIAD
TAF
KIAD 281729Z 2818/2924 29004KT P6SM SCT050
     FM282300 VRB03KT P6SM FEW250
     FM290900 00000KT P6SM SCT050
     FM291300 20004KT P6SM SCT250=



000
FTUS41 KLWX 281729
TAFBWI
TAF
KBWI 281729Z 2818/2924 VRB03KT P6SM SCT050
     FM290100 16004KT P6SM FEW250
     FM290400 00000KT P6SM FEW250
     FM291500 20006KT P6SM FEW060=



000
FTUS41 KLWX 281729
TAFMTN
TAF
KMTN 281729Z 2818/2918 17007KT P6SM SCT060
     FM290200 VRB03KT P6SM FEW250
     FM291100 00000KT P6SM FEW050
     FM291600 19006KT P6SM FEW060=



000
FTUS41 KLWX 281729
TAFDCA
TAF
KDCA 281729Z 2818/2918 VRB03KT P6SM SCT050
     FM282300 17005KT P6SM FEW250
     FM290800 00000KT P6SM FEW060
     FM291500 20006KT P6SM FEW060=



000
FTUS41 KLWX 281459 AAA
TAFBWI
TAF AMD
KBWI 281459Z 2815/2918 07004KT P6SM SCT050
     FM282300 12004KT P6SM FEW250
     FM290800 25004KT P6SM FEW250
     FM291700 19005KT P6SM SCT060=



000
FTUS41 KLWX 281459 AAA
TAFDCA
TAF AMD
KDCA 281459Z 2815/2912 VRB04KT P6SM SCT060
     FM282300 13005KT P6SM FEW060=



000
FTUS41 KLWX 281459 AAA
TAFIAD
TAF AMD
KIAD 281459Z 2815/2918 31004KT P6SM SCT060=



000
FTUS41 KLWX 281127
TAFBWI
TAF
KBWI 281127Z 2812/2918 04004KT P6SM SCT050
     FM282300 12004KT P6SM FEW250
     FM290800 25004KT P6SM FEW250
     FM291700 19005KT P6SM SCT060=



000
FTUS41 KLWX 281127
TAFCHO
TAF
KCHO 281127Z 2812/2912 00000KT P6SM BKN050
     FM281400 VRB03KT P6SM SCT060=



000
FTUS41 KLWX 281127
TAFDCA
TAF
KDCA 281127Z 2812/2912 03004KT P6SM SCT060
     FM282300 13005KT P6SM FEW060=



000
FTUS41 KLWX 281127
TAFMTN
TAF
KMTN 281127Z 2812/2912 32004KT P6SM SCT050
     FM281800 14006KT P6SM FEW250=



000
FTUS41 KLWX 281127
TAFIAD
TAF
KIAD 281127Z 2812/2918 31004KT P6SM SCT060=



000
FTUS41 KLWX 281127
TAFMRB
TAF
KMRB 281127Z 2812/2912 00000KT 3SM BR BKN070
     FM281300 VRB04KT P6SM SCT100=



000
FTUS41 KLWX 281127
TAFMTN
TAF
KMTN 281127Z 2812/2912 32004KT P6SM SCT050
     FM281800 14006KT P6SM FEW250=



000
FTUS41 KLWX 281127
TAFCHO
TAF
KCHO 281127Z 2812/2912 00000KT P6SM BKN050
     FM281400 VRB03KT P6SM SCT060=



000
FTUS41 KLWX 281127
TAFBWI
TAF
KBWI 281127Z 2812/2918 04004KT P6SM SCT050
     FM282300 12004KT P6SM FEW250
     FM290800 25004KT P6SM FEW250
     FM291700 19005KT P6SM SCT060=



000
FTUS41 KLWX 281127
TAFDCA
TAF
KDCA 281127Z 2812/2912 03004KT P6SM SCT060
     FM282300 13005KT P6SM FEW060=



000
FTUS41 KLWX 281127
TAFIAD
TAF
KIAD 281127Z 2812/2918 31004KT P6SM SCT060=



000
FTUS41 KLWX 281127
TAFMRB
TAF
KMRB 281127Z 2812/2912 00000KT 3SM BR BKN070
     FM281300 VRB04KT P6SM SCT100=



000
FTUS41 KLWX 280840 AAA
TAFMRB
TAF AMD
KMRB 280840Z 2809/2906 VRB03KT 4SM BR BKN070
     FM281300 VRB04KT P6SM SCT060=



000
FTUS41 KLWX 280831 AAA
TAFBWI
TAF AMD
KBWI 280831Z 2809/2912 VRB05KT P6SM FEW070
     FM282200 15007KT P6SM SCT060=



000
FTUS41 KLWX 280831 AAA
TAFBWI
TAF AMD
KBWI 280831Z 2809/2912 VRB05KT P6SM FEW070
     FM282200 15007KT P6SM SCT060=



000
FTUS41 KLWX 280831 AAA
TAFDCA
TAF AMD
KDCA 280831Z 2809/2906 VRB04KT P6SM SCT060
     FM282100 13006KT P6SM FEW250=



000
FTUS41 KLWX 280831 AAA
TAFDCA
TAF AMD
KDCA 280831Z 2809/2906 VRB04KT P6SM SCT060
     FM282100 13006KT P6SM FEW250=



000
FTUS41 KLWX 280830 AAA
TAFIAD
TAF AMD
KIAD 280830Z 2809/2912 VRB05KT P6SM SCT060=



000
FTUS41 KLWX 280830 AAA
TAFIAD
TAF AMD
KIAD 280830Z 2809/2912 VRB05KT P6SM SCT060=



000
FTUS41 KLWX 280527
TAFCHO
TAF
KCHO 280527Z 2806/2906 VRB03KT P6SM OVC060
     FM281500 VRB03KT P6SM SCT060=



000
FTUS41 KLWX 280527
TAFIAD
TAF
KIAD 280527Z 2806/2912 VRB05KT P6SM SCT060=



000
FTUS41 KLWX 280527
TAFBWI
TAF
KBWI 280527Z 2806/2912 VRB05KT P6SM FEW070
     FM282000 15007KT P6SM SCT060=



000
FTUS41 KLWX 280527
TAFDCA
TAF
KDCA 280527Z 2806/2906 VRB04KT P6SM SCT060
     FM282100 13007KT P6SM FEW250=



000
FTUS41 KLWX 280527
TAFMRB
TAF
KMRB 280527Z 2806/2906 VRB04KT P6SM SCT070=



000
FTUS41 KLWX 280527
TAFMTN
TAF
KMTN 280527Z 2806/2906 NIL=



000
FTUS41 KLWX 272329
TAFMRB
TAF
KMRB 272329Z 2800/2824 VRB03KT P6SM SKC
     FM281400 VRB03KT P6SM FEW050=



000
FTUS41 KLWX 272329
TAFIAD
TAF
KIAD 272329Z 2800/2906 VRB03KT P6SM SKC
     FM290200 15004KT P6SM FEW070=



000
FTUS41 KLWX 272329
TAFDCA
TAF
KDCA 272329Z 2800/2824 01006KT P6SM FEW060
     FM281500 VRB04KT P6SM FEW060
     FM282300 12006KT P6SM SKC=



000
FTUS41 KLWX 272329
TAFMTN
TAF
KMTN 272329Z 2800/2824 32005KT P6SM SKC
     FM281500 VRB04KT P6SM FEW060
     FM282300 VRB04KT P6SM SKC
      AMD NOT SKED 2802/2812=



000
FTUS41 KLWX 272329
TAFCHO
TAF
KCHO 272329Z 2800/2824 VRB03KT P6SM FEW060=



000
FTUS41 KLWX 272329
TAFBWI
TAF
KBWI 272329Z 2800/2906 VRB03KT P6SM SKC
     FM281300 04004KT P6SM FEW060
     FM282200 12004KT P6SM SKC
     FM290300 18006KT P6SM SKC=



000
FTUS41 KLWX 272329
TAFIAD
TAF
KIAD 272329Z 2800/2906 VRB03KT P6SM SKC
     FM290200 15004KT P6SM FEW070=



000
FTUS41 KLWX 272329
TAFCHO
TAF
KCHO 272329Z 2800/2824 VRB03KT P6SM FEW060=



000
FTUS41 KLWX 272329
TAFBWI
TAF
KBWI 272329Z 2800/2906 VRB03KT P6SM SKC
     FM281300 04004KT P6SM FEW060
     FM282200 12004KT P6SM SKC
     FM290300 18006KT P6SM SKC=



000
FTUS41 KLWX 272329
TAFDCA
TAF
KDCA 272329Z 2800/2824 01006KT P6SM FEW060
     FM281500 VRB04KT P6SM FEW060
     FM282300 12006KT P6SM SKC=



000
FTUS41 KLWX 272329
TAFMRB
TAF
KMRB 272329Z 2800/2824 VRB03KT P6SM SKC
     FM281400 VRB03KT P6SM FEW050=



000
FTUS41 KLWX 272329
TAFMTN
TAF
KMTN 272329Z 2800/2824 32005KT P6SM SKC
     FM281500 VRB04KT P6SM FEW060
     FM282300 VRB04KT P6SM SKC
      AMD NOT SKED 2802/2812=



000
FTUS41 KLWX 272100 AAA
TAFBWI
TAF AMD
KBWI 272100Z 2721/2824 35006KT P6SM BKN060
     FM281200 00000KT P6SM SCT050=



000
FTUS41 KLWX 272059 AAA
TAFDCA
TAF AMD
KDCA 272059Z 2721/2818 35010KT P6SM SCT050
     FM272300 VRB03KT P6SM FEW050=



000
FTUS41 KLWX 272059 AAA
TAFDCA
TAF AMD
KDCA 272059Z 2721/2818 35010KT P6SM SCT050
     FM272300 VRB03KT P6SM FEW050=



000
FTUS41 KLWX 272059 AAA
TAFIAD
TAF AMD
KIAD 272059Z 2721/2824 29010KT P6SM SCT050
     FM280100 VRB03KT P6SM FEW050=



000
FTUS41 KLWX 271731
TAFIAD
TAF
KIAD 271731Z 2718/2824 35007KT P6SM SCT050
     FM280100 VRB03KT P6SM FEW050=



000
FTUS41 KLWX 271731
TAFDCA
TAF
KDCA 271731Z 2718/2818 35010KT P6SM SCT050
     FM272300 VRB03KT P6SM FEW050=



000
FTUS41 KLWX 271731
TAFMRB
TAF
KMRB 271731Z 2718/2818 33006KT P6SM SCT050
     FM280600 VRB03KT 5SM BR SCT050
     FM281300 VRB03KT P6SM SCT050=



000
FTUS41 KLWX 271731
TAFIAD
TAF
KIAD 271731Z 2718/2824 35007KT P6SM SCT050
     FM280100 VRB03KT P6SM FEW050=



000
FTUS41 KLWX 271731
TAFMTN
TAF
KMTN 271731Z 2718/2818 32008KT P6SM SCT050
     FM280700 35004KT P6SM FEW050
     FM281600 05004KT P6SM FEW050=



000
FTUS41 KLWX 271731
TAFMRB
TAF
KMRB 271731Z 2718/2818 33006KT P6SM SCT050
     FM280600 VRB03KT 5SM BR SCT050
     FM281300 VRB03KT P6SM SCT050=



000
FTUS41 KLWX 271731
TAFCHO
TAF
KCHO 271731Z 2718/2818 VRB03KT P6SM SCT050
     FM280600 01004KT 5SM BR SCT050
     FM281300 VRB03KT P6SM SCT050=



000
FTUS41 KLWX 271731
TAFMTN
TAF
KMTN 271731Z 2718/2818 32008KT P6SM SCT050
     FM280700 35004KT P6SM FEW050
     FM281600 05004KT P6SM FEW050=



000
FTUS41 KLWX 271731
TAFBWI
TAF
KBWI 271731Z 2718/2824 33007KT P6SM SCT050
     FM281200 00000KT P6SM SCT050=



000
FTUS41 KLWX 271731
TAFCHO
TAF
KCHO 271731Z 2718/2818 VRB03KT P6SM SCT050
     FM280600 01004KT 5SM BR SCT050
     FM281300 VRB03KT P6SM SCT050=



000
FTUS41 KLWX 271731
TAFDCA
TAF
KDCA 271731Z 2718/2818 35010KT P6SM SCT050
     FM272300 VRB03KT P6SM FEW050=



000
FTUS41 KLWX 271731
TAFBWI
TAF
KBWI 271731Z 2718/2824 33007KT P6SM SCT050
     FM281200 00000KT P6SM SCT050=



000
FTUS41 KLWX 271448 AAA
TAFIAD
TAF AMD
KIAD 271448Z 2715/2818 32008KT P6SM SCT050
     FM272300 VRB03KT P6SM SCT050
     FM281700 16005KT P6SM SCT050=



000
FTUS41 KLWX 271448 AAA
TAFBWI
TAF AMD
KBWI 271448Z 2715/2818 32008KT P6SM FEW050
     FM272300 VRB03KT P6SM SCT050=



000
FTUS41 KLWX 271448 AAA
TAFDCA
TAF AMD
KDCA 271448Z 2715/2812 35010KT P6SM SCT050
     FM272300 VRB04KT P6SM SCT050=



000
FTUS41 KLWX 271129
TAFIAD
TAF
KIAD 271129Z 2712/2818 32005KT P6SM SCT050
     FM272300 VRB03KT P6SM SCT050
     FM281700 16005KT P6SM SCT050=



000
FTUS41 KLWX 271129
TAFMRB
TAF
KMRB 271129Z 2712/2812 VRB03KT P6SM SCT050
     FM271400 32007KT P6SM SCT050
     FM280000 VRB03KT P6SM SCT050=



000
FTUS41 KLWX 271129
TAFBWI
TAF
KBWI 271129Z 2712/2818 32008KT P6SM FEW050
     FM272300 VRB03KT P6SM SCT050=



000
FTUS41 KLWX 271129
TAFDCA
TAF
KDCA 271129Z 2712/2812 35010KT P6SM SCT050
     FM272300 VRB04KT P6SM SCT050=



000
FTUS41 KLWX 271129
TAFCHO
TAF
KCHO 271129Z 2712/2812 35005KT P6SM BKN050
     FM271400 05004KT P6SM SCT050
     FM272200 VRB03KT P6SM SCT050=



000
FTUS41 KLWX 271129
TAFMTN
TAF
KMTN 271129Z 2712/2812 32008KT P6SM FEW050
     FM272300 VRB03KT P6SM SCT050=



000
FTUS41 KLWX 271129
TAFMRB
TAF
KMRB 271129Z 2712/2812 VRB03KT P6SM SCT050
     FM271400 32007KT P6SM SCT050
     FM280000 VRB03KT P6SM SCT050=



000
FTUS41 KLWX 271129
TAFIAD
TAF
KIAD 271129Z 2712/2818 32005KT P6SM SCT050
     FM272300 VRB03KT P6SM SCT050
     FM281700 16005KT P6SM SCT050=



000
FTUS41 KLWX 271129
TAFCHO
TAF
KCHO 271129Z 2712/2812 35005KT P6SM BKN050
     FM271400 05004KT P6SM SCT050
     FM272200 VRB03KT P6SM SCT050=



000
FTUS41 KLWX 271129
TAFDCA
TAF
KDCA 271129Z 2712/2812 35010KT P6SM SCT050
     FM272300 VRB04KT P6SM SCT050=



000
FTUS41 KLWX 271129
TAFMTN
TAF
KMTN 271129Z 2712/2812 32008KT P6SM FEW050
     FM272300 VRB03KT P6SM SCT050=



000
FTUS41 KLWX 271129
TAFBWI
TAF
KBWI 271129Z 2712/2818 32008KT P6SM FEW050
     FM272300 VRB03KT P6SM SCT050=



000
FTUS41 KLWX 270901 AAA
TAFDCA
TAF AMD
KDCA 270901Z 2709/2806 35004KT P6SM SCT050
     FM271400 33009KT P6SM SCT050
     FM272300 VRB04KT P6SM SCT050=



000
FTUS41 KLWX 270901 AAA
TAFIAD
TAF AMD
KIAD 270901Z 2709/2812 VRB03KT P6SM SCT050
     FM271400 32005KT P6SM SCT050
     FM272300 VRB03KT P6SM SCT050=



000
FTUS41 KLWX 270901 AAA
TAFBWI
TAF AMD
KBWI 270901Z 2709/2812 VRB03KT P6SM FEW050
     FM271400 32008KT P6SM SCT050
     FM272300 VRB03KT P6SM SCT050=



000
FTUS41 KLWX 270901 AAA
TAFBWI
TAF AMD
KBWI 270901Z 2709/2812 VRB03KT P6SM FEW050
     FM271400 32008KT P6SM SCT050
     FM272300 VRB03KT P6SM SCT050=



000
FTUS41 KLWX 270901 AAA
TAFDCA
TAF AMD
KDCA 270901Z 2709/2806 35004KT P6SM SCT050
     FM271400 33009KT P6SM SCT050
     FM272300 VRB04KT P6SM SCT050=



000
FTUS41 KLWX 270901 AAA
TAFIAD
TAF AMD
KIAD 270901Z 2709/2812 VRB03KT P6SM SCT050
     FM271400 32005KT P6SM SCT050
     FM272300 VRB03KT P6SM SCT050=



    US Dept of Commerce
    National Oceanic and Atmospheric Administration
    National Weather Service
    1325 East West Highway
    Silver Spring, MD 20910
    Page Author: NWS Internet Services Team
Disclaimer
Information Quality
Credits
Glossary
Privacy Policy
Freedom of Information Act (FOIA)
About Us
Career Opportunities